sensor_id;sensor_type;location;lat;lon;timestamp;pressure;altitude;pressure_sealevel;temperature;humidity
46722;BME280;32455;43.430;23.136;2023-04-27T00:01:29;97917.50;;;9.28;57.79
46722;BME280;32455;43.430;23.136;2023-04-27T00:04:14;97927.94;;;9.12;58.69
46722;BME280;32455;43.430;23.136;2023-04-27T00:07:00;97918.78;;;9.01;58.94
46722;BME280;32455;43.430;23.136;2023-04-27T00:09:46;97925.56;;;8.78;59.11
46722;BME280;32455;43.430;23.136;2023-04-27T00:12:31;97926.66;;;8.96;59.13
46722;BME280;32455;43.430;23.136;2023-04-27T00:15:16;97916.47;;;8.80;60.42
46722;BME280;32455;43.430;23.136;2023-04-27T00:18:02;97923.25;;;8.82;58.88
46722;BME280;32455;43.430;23.136;2023-04-27T00:20:48;97920.81;;;9.06;58.27
46722;BME280;32455;43.430;23.136;2023-04-27T00:23:34;97935.50;;;8.96;58.89
46722;BME280;32455;43.430;23.136;2023-04-27T00:26:20;97914.22;;;8.76;58.68
46722;BME280;32455;43.430;23.136;2023-04-27T00:29:06;97922.00;;;8.85;57.97
46722;BME280;32455;43.430;23.136;2023-04-27T00:31:51;97922.16;;;8.90;58.67
46722;BME280;32455;43.430;23.136;2023-04-27T00:34:37;97899.69;;;8.66;58.87
46722;BME280;32455;43.430;23.136;2023-04-27T00:37:22;97913.91;;;8.91;57.93
46722;BME280;32455;43.430;23.136;2023-04-27T00:40:07;97924.41;;;8.93;57.70
46722;BME280;32455;43.430;23.136;2023-04-27T00:42:53;97921.28;;;8.71;59.34
46722;BME280;32455;43.430;23.136;2023-04-27T00:45:40;97925.91;;;8.82;59.22
46722;BME280;32455;43.430;23.136;2023-04-27T00:48:27;97909.94;;;8.69;58.55
46722;BME280;32455;43.430;23.136;2023-04-27T00:51:12;97914.09;;;8.65;59.01
46722;BME280;32455;43.430;23.136;2023-04-27T00:53:58;97919.00;;;8.74;59.10
46722;BME280;32455;43.430;23.136;2023-04-27T00:56:47;97918.53;;;8.77;58.79
46722;BME280;32455;43.430;23.136;2023-04-27T00:59:33;97921.22;;;8.77;58.39
46722;BME280;32455;43.430;23.136;2023-04-27T01:02:18;97914.06;;;8.71;58.98
46722;BME280;32455;43.430;23.136;2023-04-27T01:05:04;97909.78;;;8.64;58.36
46722;BME280;32455;43.430;23.136;2023-04-27T01:07:49;97922.50;;;8.68;58.96
46722;BME280;32455;43.430;23.136;2023-04-27T01:10:35;97911.13;;;8.80;58.24
46722;BME280;32455;43.430;23.136;2023-04-27T01:13:21;97921.75;;;8.61;57.98
46722;BME280;32455;43.430;23.136;2023-04-27T01:16:06;97919.34;;;8.53;58.94
46722;BME280;32455;43.430;23.136;2023-04-27T01:18:51;97918.75;;;8.76;58.54
46722;BME280;32455;43.430;23.136;2023-04-27T01:21:36;97920.53;;;8.89;57.75
46722;BME280;32455;43.430;23.136;2023-04-27T01:24:21;97929.69;;;8.74;58.73
46722;BME280;32455;43.430;23.136;2023-04-27T01:27:06;97921.75;;;8.86;58.80
46722;BME280;32455;43.430;23.136;2023-04-27T01:29:51;97924.53;;;8.73;58.80
46722;BME280;32455;43.430;23.136;2023-04-27T01:32:37;97913.06;;;8.66;57.90
46722;BME280;32455;43.430;23.136;2023-04-27T01:35:23;97923.31;;;8.75;59.08
46722;BME280;32455;43.430;23.136;2023-04-27T01:38:08;97920.56;;;8.57;59.35
46722;BME280;32455;43.430;23.136;2023-04-27T01:40:54;97924.47;;;8.55;60.07
46722;BME280;32455;43.430;23.136;2023-04-27T01:43:45;97924.44;;;8.61;58.82
46722;BME280;32455;43.430;23.136;2023-04-27T01:46:31;97924.38;;;8.68;58.32
46722;BME280;32455;43.430;23.136;2023-04-27T01:49:16;97903.91;;;8.80;57.70
46722;BME280;32455;43.430;23.136;2023-04-27T01:52:02;97912.25;;;8.65;58.84
46722;BME280;32455;43.430;23.136;2023-04-27T01:54:47;97912.63;;;8.37;58.17
46722;BME280;32455;43.430;23.136;2023-04-27T01:57:32;97902.47;;;8.46;58.22
46722;BME280;32455;43.430;23.136;2023-04-27T02:00:18;97906.59;;;8.48;57.29
46722;BME280;32455;43.430;23.136;2023-04-27T02:03:03;97910.75;;;8.38;57.43
46722;BME280;32455;43.430;23.136;2023-04-27T02:05:48;97914.75;;;8.60;56.94
46722;BME280;32455;43.430;23.136;2023-04-27T02:08:34;97905.31;;;8.51;56.81
46722;BME280;32455;43.430;23.136;2023-04-27T02:11:19;97910.44;;;8.59;56.68
46722;BME280;32455;43.430;23.136;2023-04-27T02:14:04;97927.78;;;8.50;56.11
46722;BME280;32455;43.430;23.136;2023-04-27T02:16:50;97911.06;;;8.55;56.86
46722;BME280;32455;43.430;23.136;2023-04-27T02:19:35;97920.81;;;8.42;56.20
46722;BME280;32455;43.430;23.136;2023-04-27T02:22:20;97925.25;;;8.62;55.39
46722;BME280;32455;43.430;23.136;2023-04-27T02:25:07;97923.03;;;8.52;56.97
46722;BME280;32455;43.430;23.136;2023-04-27T02:27:52;97929.66;;;8.49;56.47
46722;BME280;32455;43.430;23.136;2023-04-27T02:30:37;97911.34;;;8.46;56.71
46722;BME280;32455;43.430;23.136;2023-04-27T02:33:23;97932.56;;;8.35;56.65
46722;BME280;32455;43.430;23.136;2023-04-27T02:36:08;97936.63;;;8.57;56.46
46722;BME280;32455;43.430;23.136;2023-04-27T02:38:54;97934.19;;;8.49;56.98
46722;BME280;32455;43.430;23.136;2023-04-27T02:41:40;97943.50;;;8.33;57.03
46722;BME280;32455;43.430;23.136;2023-04-27T02:44:25;97943.28;;;8.35;57.83
46722;BME280;32455;43.430;23.136;2023-04-27T02:47:11;97942.34;;;8.22;57.30
46722;BME280;32455;43.430;23.136;2023-04-27T02:49:56;97943.97;;;8.23;57.49
46722;BME280;32455;43.430;23.136;2023-04-27T02:52:41;97939.22;;;8.25;57.19
46722;BME280;32455;43.430;23.136;2023-04-27T02:55:26;97947.03;;;8.27;57.79
46722;BME280;32455;43.430;23.136;2023-04-27T02:58:14;97928.47;;;8.39;56.96
46722;BME280;32455;43.430;23.136;2023-04-27T03:01:00;97940.66;;;8.28;57.36
46722;BME280;32455;43.430;23.136;2023-04-27T03:03:45;97953.63;;;8.24;57.32
46722;BME280;32455;43.430;23.136;2023-04-27T03:06:30;97952.41;;;8.27;57.55
46722;BME280;32455;43.430;23.136;2023-04-27T03:09:15;97959.16;;;8.29;57.42
46722;BME280;32455;43.430;23.136;2023-04-27T03:12:01;97956.72;;;8.21;56.63
46722;BME280;32455;43.430;23.136;2023-04-27T03:14:46;97960.03;;;8.23;55.91
46722;BME280;32455;43.430;23.136;2023-04-27T03:17:31;97958.34;;;8.29;57.24
46722;BME280;32455;43.430;23.136;2023-04-27T03:20:16;97964.97;;;8.26;55.40
46722;BME280;32455;43.430;23.136;2023-04-27T03:23:02;97970.31;;;8.26;56.06
46722;BME280;32455;43.430;23.136;2023-04-27T03:25:47;97968.47;;;8.27;56.81
46722;BME280;32455;43.430;23.136;2023-04-27T03:28:33;97969.84;;;8.36;55.70
46722;BME280;32455;43.430;23.136;2023-04-27T03:31:18;97973.78;;;8.34;55.73
46722;BME280;32455;43.430;23.136;2023-04-27T03:34:03;97973.59;;;8.22;56.29
46722;BME280;32455;43.430;23.136;2023-04-27T03:36:48;97983.50;;;8.21;56.04
46722;BME280;32455;43.430;23.136;2023-04-27T03:39:34;97973.06;;;8.07;55.26
46722;BME280;32455;43.430;23.136;2023-04-27T03:42:19;97987.63;;;8.17;56.03
46722;BME280;32455;43.430;23.136;2023-04-27T03:45:05;97986.00;;;8.16;56.20
46722;BME280;32455;43.430;23.136;2023-04-27T03:47:50;97976.56;;;8.07;56.43
46722;BME280;32455;43.430;23.136;2023-04-27T03:50:36;97989.34;;;8.05;56.55
46722;BME280;32455;43.430;23.136;2023-04-27T03:53:21;97982.28;;;8.17;57.36
46722;BME280;32455;43.430;23.136;2023-04-27T03:56:06;97986.78;;;8.37;56.39
46722;BME280;32455;43.430;23.136;2023-04-27T03:58:52;97991.91;;;8.38;55.19
46722;BME280;32455;43.430;23.136;2023-04-27T04:01:38;97996.44;;;8.38;55.50
46722;BME280;32455;43.430;23.136;2023-04-27T04:04:23;98000.59;;;8.27;55.90
46722;BME280;32455;43.430;23.136;2023-04-27T04:07:09;97994.81;;;8.23;55.73
46722;BME280;32455;43.430;23.136;2023-04-27T04:09:55;98011.06;;;8.28;55.94
46722;BME280;32455;43.430;23.136;2023-04-27T04:12:40;97996.00;;;8.34;54.63
46722;BME280;32455;43.430;23.136;2023-04-27T04:15:25;98007.34;;;8.29;54.28
46722;BME280;32455;43.430;23.136;2023-04-27T04:18:11;98023.19;;;8.44;53.85
46722;BME280;32455;43.430;23.136;2023-04-27T04:20:56;98016.75;;;8.59;53.84
46722;BME280;32455;43.430;23.136;2023-04-27T04:23:41;98014.28;;;8.57;54.50
46722;BME280;32455;43.430;23.136;2023-04-27T04:26:27;98017.94;;;8.69;53.27
46722;BME280;32455;43.430;23.136;2023-04-27T04:29:12;98016.72;;;8.65;52.75
46722;BME280;32455;43.430;23.136;2023-04-27T04:31:57;98017.81;;;8.89;53.20
46722;BME280;32455;43.430;23.136;2023-04-27T04:34:46;98030.56;;;8.94;51.92
46722;BME280;32455;43.430;23.136;2023-04-27T04:37:34;98027.59;;;9.09;51.41
46722;BME280;32455;43.430;23.136;2023-04-27T04:40:19;98027.50;;;9.22;51.37
46722;BME280;32455;43.430;23.136;2023-04-27T04:43:04;98027.25;;;9.23;50.78
46722;BME280;32455;43.430;23.136;2023-04-27T04:45:50;98032.13;;;9.33;50.90
46722;BME280;32455;43.430;23.136;2023-04-27T04:48:36;98038.59;;;9.50;51.23
46722;BME280;32455;43.430;23.136;2023-04-27T04:51:21;98046.19;;;9.28;50.59
46722;BME280;32455;43.430;23.136;2023-04-27T04:54:06;98053.53;;;9.40;50.55
46722;BME280;32455;43.430;23.136;2023-04-27T04:56:52;98055.81;;;9.68;50.92
46722;BME280;32455;43.430;23.136;2023-04-27T04:59:37;98060.47;;;9.97;51.55
46722;BME280;32455;43.430;23.136;2023-04-27T05:02:22;98062.72;;;10.25;50.07
46722;BME280;32455;43.430;23.136;2023-04-27T05:05:08;98071.28;;;10.52;49.83
46722;BME280;32455;43.430;23.136;2023-04-27T05:07:54;98066.72;;;10.53;49.97
46722;BME280;32455;43.430;23.136;2023-04-27T05:10:40;98089.63;;;10.74;49.04
46722;BME280;32455;43.430;23.136;2023-04-27T05:13:25;98084.94;;;10.51;47.86
46722;BME280;32455;43.430;23.136;2023-04-27T05:16:11;98098.53;;;10.38;48.85
46722;BME280;32455;43.430;23.136;2023-04-27T05:18:57;98095.59;;;10.58;49.33
46722;BME280;32455;43.430;23.136;2023-04-27T05:21:43;98091.50;;;10.73;47.56
46722;BME280;32455;43.430;23.136;2023-04-27T05:24:28;98093.84;;;11.00;48.76
46722;BME280;32455;43.430;23.136;2023-04-27T05:27:13;98099.66;;;10.67;48.01
46722;BME280;32455;43.430;23.136;2023-04-27T05:29:59;98088.97;;;10.60;49.03
46722;BME280;32455;43.430;23.136;2023-04-27T05:32:45;98101.38;;;11.10;46.17
46722;BME280;32455;43.430;23.136;2023-04-27T05:35:31;98087.19;;;11.02;47.21
46722;BME280;32455;43.430;23.136;2023-04-27T05:38:17;98088.78;;;10.92;47.17
46722;BME280;32455;43.430;23.136;2023-04-27T05:41:02;98093.66;;;11.13;47.85
46722;BME280;32455;43.430;23.136;2023-04-27T05:43:47;98099.28;;;11.53;46.31
46722;BME280;32455;43.430;23.136;2023-04-27T05:46:33;98106.56;;;11.53;46.40
46722;BME280;32455;43.430;23.136;2023-04-27T05:49:18;98098.19;;;11.31;47.10
46722;BME280;32455;43.430;23.136;2023-04-27T05:52:04;98101.88;;;11.48;46.92
46722;BME280;32455;43.430;23.136;2023-04-27T05:54:49;98115.22;;;11.25;45.92
46722;BME280;32455;43.430;23.136;2023-04-27T05:57:35;98098.81;;;10.85;46.86
46722;BME280;32455;43.430;23.136;2023-04-27T06:00:21;98106.88;;;11.45;45.82
46722;BME280;32455;43.430;23.136;2023-04-27T06:03:06;98109.44;;;11.40;46.36
46722;BME280;32455;43.430;23.136;2023-04-27T06:05:59;98118.47;;;11.45;44.81
46722;BME280;32455;43.430;23.136;2023-04-27T06:08:44;98116.41;;;11.29;46.54
46722;BME280;32455;43.430;23.136;2023-04-27T06:11:29;98129.63;;;11.61;47.44
46722;BME280;32455;43.430;23.136;2023-04-27T06:14:15;98115.91;;;11.20;45.33
46722;BME280;32455;43.430;23.136;2023-04-27T06:17:01;98119.88;;;11.48;46.71
46722;BME280;32455;43.430;23.136;2023-04-27T06:19:46;98121.47;;;11.37;45.94
46722;BME280;32455;43.430;23.136;2023-04-27T06:22:32;98110.56;;;11.62;46.72
46722;BME280;32455;43.430;23.136;2023-04-27T06:25:17;98120.09;;;11.46;47.76
46722;BME280;32455;43.430;23.136;2023-04-27T06:28:02;98137.34;;;12.11;46.98
46722;BME280;32455;43.430;23.136;2023-04-27T06:30:47;98122.91;;;11.93;44.86
46722;BME280;32455;43.430;23.136;2023-04-27T06:33:32;98122.34;;;12.38;46.07
46722;BME280;32455;43.430;23.136;2023-04-27T06:36:18;98127.25;;;12.65;46.54
46722;BME280;32455;43.430;23.136;2023-04-27T06:39:03;98141.53;;;12.42;45.50
46722;BME280;32455;43.430;23.136;2023-04-27T06:41:49;98126.63;;;12.74;46.61
46722;BME280;32455;43.430;23.136;2023-04-27T06:44:34;98122.69;;;12.53;45.77
46722;BME280;32455;43.430;23.136;2023-04-27T06:47:24;98120.81;;;13.06;46.84
46722;BME280;32455;43.430;23.136;2023-04-27T06:50:10;98116.75;;;13.32;45.57
46722;BME280;32455;43.430;23.136;2023-04-27T06:52:55;98119.22;;;13.22;44.22
46722;BME280;32455;43.430;23.136;2023-04-27T06:55:41;98123.19;;;13.02;45.19
46722;BME280;32455;43.430;23.136;2023-04-27T06:58:27;98116.19;;;13.18;42.66
46722;BME280;32455;43.430;23.136;2023-04-27T07:01:13;98125.31;;;12.89;44.84
46722;BME280;32455;43.430;23.136;2023-04-27T07:03:58;98129.84;;;13.40;43.86
46722;BME280;32455;43.430;23.136;2023-04-27T07:06:44;98124.91;;;12.68;44.06
46722;BME280;32455;43.430;23.136;2023-04-27T07:09:29;98121.91;;;13.22;43.96
46722;BME280;32455;43.430;23.136;2023-04-27T07:12:14;98128.59;;;13.31;43.09
46722;BME280;32455;43.430;23.136;2023-04-27T07:14:59;98130.69;;;13.41;41.25
46722;BME280;32455;43.430;23.136;2023-04-27T07:17:47;98129.72;;;12.31;42.88
46722;BME280;32455;43.430;23.136;2023-04-27T07:20:32;98135.16;;;12.95;43.15
46722;BME280;32455;43.430;23.136;2023-04-27T07:23:17;98134.91;;;13.99;41.37
46722;BME280;32455;43.430;23.136;2023-04-27T07:26:03;98136.72;;;13.93;42.78
46722;BME280;32455;43.430;23.136;2023-04-27T07:28:48;98134.53;;;13.04;42.70
46722;BME280;32455;43.430;23.136;2023-04-27T07:31:34;98129.09;;;13.28;43.40
46722;BME280;32455;43.430;23.136;2023-04-27T07:34:20;98117.25;;;13.29;42.66
46722;BME280;32455;43.430;23.136;2023-04-27T07:37:06;98134.25;;;12.89;41.79
46722;BME280;32455;43.430;23.136;2023-04-27T07:39:51;98138.41;;;13.49;44.95
46722;BME280;32455;43.430;23.136;2023-04-27T07:42:37;98130.25;;;13.94;43.58
46722;BME280;32455;43.430;23.136;2023-04-27T07:45:24;98139.34;;;13.43;40.13
46722;BME280;32455;43.430;23.136;2023-04-27T07:48:16;98129.91;;;13.74;45.79
46722;BME280;32455;43.430;23.136;2023-04-27T07:51:02;98132.06;;;14.06;42.83
46722;BME280;32455;43.430;23.136;2023-04-27T07:53:47;98132.06;;;13.89;43.00
46722;BME280;32455;43.430;23.136;2023-04-27T07:56:33;98133.94;;;13.71;41.37
46722;BME280;32455;43.430;23.136;2023-04-27T07:59:18;98135.91;;;13.93;40.90
46722;BME280;32455;43.430;23.136;2023-04-27T08:02:04;98149.28;;;13.25;40.54
46722;BME280;32455;43.430;23.136;2023-04-27T08:04:50;98133.59;;;13.11;41.79
46722;BME280;32455;43.430;23.136;2023-04-27T08:07:35;98140.41;;;13.70;40.67
46722;BME280;32455;43.430;23.136;2023-04-27T08:10:21;98149.63;;;13.17;40.48
46722;BME280;32455;43.430;23.136;2023-04-27T08:13:07;98130.72;;;13.91;38.84
46722;BME280;32455;43.430;23.136;2023-04-27T08:15:53;98152.69;;;14.28;38.78
46722;BME280;32455;43.430;23.136;2023-04-27T08:18:42;98139.34;;;13.88;38.84
46722;BME280;32455;43.430;23.136;2023-04-27T08:21:28;98145.97;;;13.81;40.51
46722;BME280;32455;43.430;23.136;2023-04-27T08:24:14;98128.41;;;12.57;41.66
46722;BME280;32455;43.430;23.136;2023-04-27T08:26:59;98148.38;;;13.08;43.88
46722;BME280;32455;43.430;23.136;2023-04-27T08:29:45;98156.41;;;13.32;41.94
46722;BME280;32455;43.430;23.136;2023-04-27T08:32:31;98137.75;;;13.59;41.62
46722;BME280;32455;43.430;23.136;2023-04-27T08:35:16;98144.34;;;13.80;38.59
46722;BME280;32455;43.430;23.136;2023-04-27T08:38:02;98134.84;;;13.94;40.56
46722;BME280;32455;43.430;23.136;2023-04-27T08:40:47;98152.19;;;14.32;40.47
46722;BME280;32455;43.430;23.136;2023-04-27T08:43:34;98137.78;;;13.92;38.23
46722;BME280;32455;43.430;23.136;2023-04-27T08:46:23;98146.50;;;13.49;38.55
46722;BME280;32455;43.430;23.136;2023-04-27T08:49:11;98148.16;;;13.67;42.01
46722;BME280;32455;43.430;23.136;2023-04-27T08:51:57;98140.97;;;14.57;40.25
46722;BME280;32455;43.430;23.136;2023-04-27T08:54:42;98147.19;;;14.57;41.19
46722;BME280;32455;43.430;23.136;2023-04-27T08:57:27;98143.84;;;14.16;41.77
46722;BME280;32455;43.430;23.136;2023-04-27T09:00:13;98148.34;;;14.61;40.91
46722;BME280;32455;43.430;23.136;2023-04-27T09:02:59;98143.22;;;15.03;40.61
46722;BME280;32455;43.430;23.136;2023-04-27T09:05:48;98136.41;;;14.79;39.62
46722;BME280;32455;43.430;23.136;2023-04-27T09:08:47;98149.22;;;14.67;40.45
46722;BME280;32455;43.430;23.136;2023-04-27T09:11:37;98141.41;;;14.48;38.87
46722;BME280;32455;43.430;23.136;2023-04-27T09:14:23;98135.50;;;14.35;39.24
46722;BME280;32455;43.430;23.136;2023-04-27T09:17:08;98136.53;;;13.66;38.32
46722;BME280;32455;43.430;23.136;2023-04-27T09:20:06;98116.56;;;13.67;38.50
46722;BME280;32455;43.430;23.136;2023-04-27T09:22:57;98128.91;;;13.63;40.29
46722;BME280;32455;43.430;23.136;2023-04-27T09:25:42;98122.28;;;13.54;38.91
46722;BME280;32455;43.430;23.136;2023-04-27T09:28:29;98136.88;;;13.87;39.17
46722;BME280;32455;43.430;23.136;2023-04-27T09:31:18;98131.88;;;13.78;39.67
46722;BME280;32455;43.430;23.136;2023-04-27T09:34:04;98146.13;;;14.58;38.99
46722;BME280;32455;43.430;23.136;2023-04-27T09:36:49;98124.19;;;14.76;38.52
46722;BME280;32455;43.430;23.136;2023-04-27T09:39:35;98126.81;;;14.16;38.09
46722;BME280;32455;43.430;23.136;2023-04-27T09:42:22;98117.94;;;14.54;39.46
46722;BME280;32455;43.430;23.136;2023-04-27T09:45:08;98128.69;;;14.49;39.09
46722;BME280;32455;43.430;23.136;2023-04-27T09:47:54;98132.19;;;14.66;37.61
46722;BME280;32455;43.430;23.136;2023-04-27T09:50:41;98129.59;;;14.21;38.82
46722;BME280;32455;43.430;23.136;2023-04-27T09:53:40;98126.44;;;14.46;39.37
46722;BME280;32455;43.430;23.136;2023-04-27T09:56:43;98125.13;;;15.31;37.56
46722;BME280;32455;43.430;23.136;2023-04-27T10:00:13;98111.59;;;15.09;36.13
46722;BME280;32455;43.430;23.136;2023-04-27T10:06:21;98110.59;;;15.64;37.38
46722;BME280;32455;43.430;23.136;2023-04-27T10:09:20;98087.38;;;15.46;37.03
46722;BME280;32455;43.430;23.136;2023-04-27T10:12:19;98108.22;;;14.97;35.46
46722;BME280;32455;43.430;23.136;2023-04-27T10:15:32;98099.91;;;15.03;34.78
46722;BME280;32455;43.430;23.136;2023-04-27T10:18:30;98107.72;;;15.76;38.46
46722;BME280;32455;43.430;23.136;2023-04-27T10:21:15;98086.88;;;15.76;35.59
46722;BME280;32455;43.430;23.136;2023-04-27T10:24:09;98107.97;;;15.74;36.14
46722;BME280;32455;43.430;23.136;2023-04-27T10:27:00;98096.34;;;16.11;33.72
46722;BME280;32455;43.430;23.136;2023-04-27T10:29:49;98094.00;;;15.61;36.34
46722;BME280;32455;43.430;23.136;2023-04-27T10:32:35;98095.00;;;14.78;37.48
46722;BME280;32455;43.430;23.136;2023-04-27T10:35:21;98114.97;;;14.56;37.29
46722;BME280;32455;43.430;23.136;2023-04-27T10:38:09;98111.22;;;14.57;36.62
46722;BME280;32455;43.430;23.136;2023-04-27T10:41:02;98113.25;;;15.37;37.11
46722;BME280;32455;43.430;23.136;2023-04-27T10:43:48;98119.75;;;15.36;36.21
46722;BME280;32455;43.430;23.136;2023-04-27T10:46:34;98112.66;;;15.57;35.71
46722;BME280;32455;43.430;23.136;2023-04-27T10:49:21;98096.44;;;15.62;34.98
46722;BME280;32455;43.430;23.136;2023-04-27T10:52:05;98104.50;;;15.84;36.24
46722;BME280;32455;43.430;23.136;2023-04-27T10:54:51;98096.81;;;14.73;35.26
46722;BME280;32455;43.430;23.136;2023-04-27T10:57:45;98109.75;;;15.64;33.84
46722;BME280;32455;43.430;23.136;2023-04-27T11:00:37;98102.31;;;15.27;37.13
46722;BME280;32455;43.430;23.136;2023-04-27T11:03:22;98101.34;;;15.92;39.28
46722;BME280;32455;43.430;23.136;2023-04-27T11:06:08;98113.06;;;15.98;38.50
46722;BME280;32455;43.430;23.136;2023-04-27T11:08:55;98123.66;;;15.72;34.85
46722;BME280;32455;43.430;23.136;2023-04-27T11:11:44;98095.03;;;15.55;37.82
46722;BME280;32455;43.430;23.136;2023-04-27T11:14:30;98097.91;;;16.02;35.34
46722;BME280;32455;43.430;23.136;2023-04-27T11:17:15;98088.91;;;15.96;38.55
46722;BME280;32455;43.430;23.136;2023-04-27T11:20:01;98105.97;;;15.38;35.03
46722;BME280;32455;43.430;23.136;2023-04-27T11:22:47;98110.28;;;14.90;35.42
46722;BME280;32455;43.430;23.136;2023-04-27T11:25:34;98102.81;;;14.97;36.38
46722;BME280;32455;43.430;23.136;2023-04-27T11:28:22;98106.47;;;15.62;37.45
46722;BME280;32455;43.430;23.136;2023-04-27T11:31:08;98111.50;;;16.07;36.05
46722;BME280;32455;43.430;23.136;2023-04-27T11:33:53;98120.28;;;15.60;34.76
46722;BME280;32455;43.430;23.136;2023-04-27T11:36:38;98124.81;;;15.55;34.96
46722;BME280;32455;43.430;23.136;2023-04-27T11:39:26;98122.59;;;15.24;32.21
46722;BME280;32455;43.430;23.136;2023-04-27T11:42:20;98112.50;;;15.42;35.29
46722;BME280;32455;43.430;23.136;2023-04-27T11:45:11;98120.13;;;16.04;33.74
46722;BME280;32455;43.430;23.136;2023-04-27T11:47:57;98101.66;;;16.01;35.05
46722;BME280;32455;43.430;23.136;2023-04-27T11:50:46;98112.41;;;15.86;36.24
46722;BME280;32455;43.430;23.136;2023-04-27T11:53:36;98112.41;;;15.86;36.64
46722;BME280;32455;43.430;23.136;2023-04-27T11:56:21;98110.25;;;15.88;35.29
46722;BME280;32455;43.430;23.136;2023-04-27T11:59:28;98122.13;;;16.56;34.34
46722;BME280;32455;43.430;23.136;2023-04-27T12:02:13;98124.19;;;16.44;34.02
46722;BME280;32455;43.430;23.136;2023-04-27T12:04:58;98110.69;;;16.96;33.41
46722;BME280;32455;43.430;23.136;2023-04-27T12:07:43;98106.78;;;16.35;32.31
46722;BME280;32455;43.430;23.136;2023-04-27T12:10:28;98098.59;;;16.72;34.43
46722;BME280;32455;43.430;23.136;2023-04-27T12:13:15;98110.88;;;16.74;34.52
46722;BME280;32455;43.430;23.136;2023-04-27T12:16:00;98100.25;;;16.73;34.42
46722;BME280;32455;43.430;23.136;2023-04-27T12:18:46;98114.31;;;16.22;36.88
46722;BME280;32455;43.430;23.136;2023-04-27T12:21:31;98103.25;;;16.76;32.16
46722;BME280;32455;43.430;23.136;2023-04-27T12:24:18;98105.16;;;16.76;35.17
46722;BME280;32455;43.430;23.136;2023-04-27T12:27:04;98104.50;;;16.59;33.84
46722;BME280;32455;43.430;23.136;2023-04-27T12:29:49;98117.25;;;16.16;34.84
46722;BME280;32455;43.430;23.136;2023-04-27T12:32:34;98094.84;;;16.36;36.83
46722;BME280;32455;43.430;23.136;2023-04-27T12:35:20;98102.94;;;16.25;34.56
46722;BME280;32455;43.430;23.136;2023-04-27T12:38:06;98120.50;;;15.59;35.44
46722;BME280;32455;43.430;23.136;2023-04-27T12:40:51;98103.28;;;16.39;35.29
46722;BME280;32455;43.430;23.136;2023-04-27T12:43:37;98097.66;;;16.46;35.98
46722;BME280;32455;43.430;23.136;2023-04-27T12:46:24;98120.94;;;16.79;34.32
46722;BME280;32455;43.430;23.136;2023-04-27T12:49:10;98110.44;;;16.56;35.63
46722;BME280;32455;43.430;23.136;2023-04-27T12:51:56;98106.56;;;16.84;35.56
46722;BME280;32455;43.430;23.136;2023-04-27T12:54:42;98107.56;;;16.30;36.84
46722;BME280;32455;43.430;23.136;2023-04-27T12:57:27;98114.34;;;15.36;34.51
46722;BME280;32455;43.430;23.136;2023-04-27T13:00:12;98113.34;;;14.98;34.71
46722;BME280;32455;43.430;23.136;2023-04-27T13:02:57;98127.31;;;15.34;35.53
46722;BME280;32455;43.430;23.136;2023-04-27T13:05:41;98115.50;;;14.74;34.82
46722;BME280;32455;43.430;23.136;2023-04-27T13:08:27;98123.44;;;15.03;35.46
46722;BME280;32455;43.430;23.136;2023-04-27T13:11:12;98117.63;;;14.94;35.35
46722;BME280;32455;43.430;23.136;2023-04-27T13:13:58;98100.75;;;15.31;35.87
46722;BME280;32455;43.430;23.136;2023-04-27T13:16:43;98113.97;;;15.27;34.30
46722;BME280;32455;43.430;23.136;2023-04-27T13:19:28;98110.34;;;15.17;35.10
46722;BME280;32455;43.430;23.136;2023-04-27T13:22:14;98107.38;;;15.45;35.88
46722;BME280;32455;43.430;23.136;2023-04-27T13:24:59;98108.22;;;16.05;34.34
46722;BME280;32455;43.430;23.136;2023-04-27T13:27:44;98115.94;;;15.59;34.18
46722;BME280;32455;43.430;23.136;2023-04-27T13:30:30;98113.22;;;15.59;35.13
46722;BME280;32455;43.430;23.136;2023-04-27T13:33:15;98113.81;;;15.39;37.87
46722;BME280;32455;43.430;23.136;2023-04-27T13:36:01;98115.22;;;15.69;34.59
46722;BME280;32455;43.430;23.136;2023-04-27T13:38:47;98121.78;;;15.24;34.51
46722;BME280;32455;43.430;23.136;2023-04-27T13:41:33;98115.91;;;16.18;35.24
46722;BME280;32455;43.430;23.136;2023-04-27T13:44:19;98106.00;;;16.87;34.03
46722;BME280;32455;43.430;23.136;2023-04-27T13:47:04;98139.03;;;17.26;33.79
46722;BME280;32455;43.430;23.136;2023-04-27T13:49:50;98135.44;;;15.88;34.70
46722;BME280;32455;43.430;23.136;2023-04-27T13:52:36;98146.41;;;15.71;34.83
46722;BME280;32455;43.430;23.136;2023-04-27T13:55:22;98155.28;;;15.94;34.67
46722;BME280;32455;43.430;23.136;2023-04-27T13:58:08;98144.59;;;15.55;35.16
46722;BME280;32455;43.430;23.136;2023-04-27T14:00:55;98140.19;;;15.49;35.50
46722;BME280;32455;43.430;23.136;2023-04-27T14:03:40;98151.47;;;15.41;35.41
46722;BME280;32455;43.430;23.136;2023-04-27T14:06:25;98144.47;;;15.18;36.97
46722;BME280;32455;43.430;23.136;2023-04-27T14:09:11;98153.72;;;15.71;36.96
46722;BME280;32455;43.430;23.136;2023-04-27T14:11:56;98158.78;;;15.89;35.74
46722;BME280;32455;43.430;23.136;2023-04-27T14:14:41;98169.19;;;16.40;33.38
46722;BME280;32455;43.430;23.136;2023-04-27T14:17:27;98175.78;;;16.49;34.60
46722;BME280;32455;43.430;23.136;2023-04-27T14:20:12;98144.88;;;16.50;35.11
46722;BME280;32455;43.430;23.136;2023-04-27T14:22:58;98173.03;;;16.86;35.00
46722;BME280;32455;43.430;23.136;2023-04-27T14:25:43;98162.50;;;15.83;34.29
46722;BME280;32455;43.430;23.136;2023-04-27T14:28:28;98168.19;;;15.82;35.30
46722;BME280;32455;43.430;23.136;2023-04-27T14:31:13;98182.06;;;15.63;36.78
46722;BME280;32455;43.430;23.136;2023-04-27T14:33:58;98170.59;;;15.78;35.75
46722;BME280;32455;43.430;23.136;2023-04-27T14:36:43;98179.38;;;14.97;38.02